Buoy 33880

sailwx.info

Track history (hours):
 
Tides and Currents Weather Stations Pressure Air Temp Water Temp Dewpoint Dewpoint Depression Visibility Wind Speed Wind Dir Waves Ship Positions

Drifting buoy 33880

Last reported at 2017-Nov-22 23:00 UTC. Time now 2017-Nov-23 03:49 UTC.
Position S 34°39' W 015°50'.

Date/timePositionNaut miles runAvg speedWind from/ knotsBaromVisibWave heightAir tempDewpointWater temp
2017-Nov-22 23:00S 34°39' W 015°50'2 1.2
2017-Nov-22 21:00S 34°37' W 015°49'1 0.3
2017-Nov-22 18:00S 34°37' W 015°48'1 0.4
2017-Nov-22 16:00S 34°37' W 015°49'4 0.6
2017-Nov-22 10:00S 34°38' W 015°53'2 2.3
2017-Nov-22 09:00S 34°37' W 015°55'1 0.2
2017-Nov-22 04:00S 34°36' W 015°56'2 0.5
2017-Nov-22 00:00S 34°34' W 015°55'0 0.0
2017-Nov-21 23:00S 34°34' W 015°55'0 0.0
2017-Nov-21 22:00S 34°34' W 015°55'1 0.4
2017-Nov-21 19:00S 34°35' W 015°56'1 0.8
2017-Nov-21 18:00S 34°34' W 015°57'2 0.8
2017-Nov-21 15:00S 34°34' W 016°00'1 0.4
2017-Nov-21 11:00S 34°34' W 016°02'3 0.5
2017-Nov-21 05:00S 34°31' W 016°03'0 0.0
2017-Nov-21 04:00S 34°31' W 016°03'1 0.1
2017-Nov-20 22:00S 34°32' W 016°04'1 0.2
2017-Nov-20 19:00S 34°31' W 016°04'1 0.6
2017-Nov-20 18:00S 34°32' W 016°04'2 1.6
2017-Nov-20 17:00S 34°31' W 016°05'0 0.0
2017-Nov-20 16:00S 34°31' W 016°05'4 0.6
2017-Nov-20 09:00S 34°27' W 016°07'4 1.3
2017-Nov-20 06:00S 34°24' W 016°04'0 0.0
2017-Nov-20 05:00S 34°24' W 016°04'3 1.1
2017-Nov-20 02:00S 34°23' W 016°01'0 0.0
2017-Nov-20 00:00S 34°23' W 016°01'1 0.4
2017-Nov-19 22:00S 34°22' W 016°00'0 0.0
2017-Nov-19 20:00S 34°22' W 016°00'1 0.6
2017-Nov-19 19:00S 34°23' W 016°00'1 0.8
2017-Nov-19 18:00S 34°22' W 015°59'0 0.5
2017-Nov-19 17:00S 34°22' W 015°59'8 0.5
2017-Nov-19 02:00S 34°23' W 015°49'4 0.8
2017-Nov-18 21:00S 34°27' W 015°51'2 1.9
2017-Nov-18 20:00S 34°25' W 015°52'0 0.0
2017-Nov-18 18:00S 34°25' W 015°52'0 0.0
2017-Nov-18 17:00S 34°25' W 015°52'3 0.5
2017-Nov-18 10:00S 34°26' W 015°55'1 0.6
2017-Nov-18 08:00S 34°25' W 015°55'1 0.2
2017-Nov-18 03:00S 34°26' W 015°56'0 0.0
2017-Nov-18 02:00S 34°26' W 015°56'2 0.8
2017-Nov-17 23:00S 34°24' W 015°58'0 0.0
2017-Nov-17 22:00S 34°24' W 015°58'1 0.4
2017-Nov-17 20:00S 34°23' W 015°59'0 0.0
2017-Nov-17 19:00S 34°23' W 015°59'1 0.8
2017-Nov-17 18:00S 34°23' W 015°59'0 0.5
2017-Nov-17 17:00S 34°23' W 015°59'0 0.0
2017-Nov-17 15:00S 34°23' W 015°59'1 0.2
2017-Nov-17 10:00S 34°22' W 016°00'0 0.5
2017-Nov-17 09:00S 34°22' W 016°01'2 0.5
2017-Nov-17 06:00S 34°21' W 016°02'0 0.0
2017-Nov-17 05:00S 34°21' W 016°02'1 0.4
2017-Nov-17 03:00S 34°22' W 016°01'0 0.0
2017-Nov-17 02:00S 34°22' W 016°01'2 0.8
2017-Nov-17 00:00S 34°20' W 016°02'0 0.5
2017-Nov-16 23:00S 34°20' W 016°02'1 0.8
2017-Nov-16 22:00S 34°20' W 016°02'0 0.0
2017-Nov-16 21:00S 34°20' W 016°02'0 0.0
2017-Nov-16 20:00S 34°20' W 016°02'0 0.0
2017-Nov-16 19:00S 34°20' W 016°02'0 0.5
2017-Nov-16 18:00S 34°20' W 016°02'1 0.6
2017-Nov-16 17:00S 34°20' W 016°02'0 0.2
2017-Nov-16 15:00S 34°20' W 016°02'2 0.5
2017-Nov-16 11:00S 34°22' W 016°04'0 0.2
2017-Nov-16 09:00S 34°22' W 016°04'1 1.5
2017-Nov-16 08:00S 34°22' W 016°05'0 0.0
2017-Nov-16 07:00S 34°22' W 016°05'2 1.0
2017-Nov-16 05:00S 34°21' W 016°08'1 0.3
2017-Nov-16 03:00S 34°22' W 016°08'2 0.4
2017-Nov-15 23:00S 34°21' W 016°10'1 0.6
2017-Nov-15 22:00S 34°20' W 016°10'0 0.0
2017-Nov-15 21:00S 34°20' W 016°10'0 0.0
2017-Nov-15 20:00S 34°20' W 016°10'1 0.3
2017-Nov-15 18:00S 34°21' W 016°10'0 0.0
2017-Nov-15 17:00S 34°21' W 016°10'2 1.6
2017-Nov-15 16:00S 34°22' W 016°11'0 0.5
2017-Nov-15 15:00S 34°22' W 016°11'3 0.6
2017-Nov-15 10:00S 34°21' W 016°14'0 0.5
2017-Nov-15 09:00S 34°21' W 016°15'2 1.6
2017-Nov-15 08:00S 34°20' W 016°17'0 0.0
2017-Nov-15 07:00S 34°20' W 016°17'2 0.8
2017-Nov-15 05:00S 34°19' W 016°18'4 2.2
2017-Nov-15 03:00S 34°15' W 016°20'0 0.0
2017-Nov-15 00:00S 34°15' W 016°20'0 0.0
2017-Nov-14 23:00S 34°15' W 016°20'2 1.9
2017-Nov-14 22:00S 34°13' W 016°19'0 0.0
2017-Nov-14 21:00S 34°13' W 016°19'1 0.6
2017-Nov-14 19:00S 34°12' W 016°19'0 0.0
2017-Nov-14 18:00S 34°12' W 016°19'1 0.8
2017-Nov-14 17:00S 34°11' W 016°20'0 0.0
2017-Nov-14 16:00S 34°11' W 016°20'0 0.0
2017-Nov-14 15:00S 34°11' W 016°20'2 0.4
2017-Nov-14 11:00S 34°11' W 016°22'3 1.3
2017-Nov-14 09:00S 34°09' W 016°24'0 0.0
2017-Nov-14 08:00S 34°09' W 016°24'4 1.8
2017-Nov-14 06:00S 34°05' W 016°25'4 1.2
2017-Nov-14 03:00S 34°02' W 016°23'1 0.3
2017-Nov-13 23:00S 34°01' W 016°23'0 0.0
2017-Nov-13 22:00S 34°01' W 016°23'1 0.4
2017-Nov-13 19:00S 34°02' W 016°22'1 1.3
2017-Nov-13 18:00S 34°01' W 016°22'1 0.8
2017-Nov-13 17:00S 34°00' W 016°22'0 0.0
2017-Nov-13 16:00S 34°00' W 016°22'0 0.0
2017-Nov-13 15:00S 34°00' W 016°22'4 0.7
2017-Nov-13 10:00S 33°56' W 016°22'0 0.0
2017-Nov-13 08:00S 33°56' W 016°22'1 0.6
2017-Nov-13 06:00S 33°55' W 016°22'0 0.0
2017-Nov-13 05:00S 33°55' W 016°22'1 1.3
2017-Nov-13 04:00S 33°54' W 016°21'3 2.6
2017-Nov-13 03:00S 33°53' W 016°18'0 0.0
2017-Nov-13 00:00S 33°53' W 016°18'1 1.2
2017-Nov-12 23:00S 33°53' W 016°17'  
Track history (hours):
 
Tides and Currents Weather Stations Pressure Air Temp Water Temp Dewpoint Dewpoint Depression Visibility Wind Speed Wind Dir Waves Ship Positions

Drifting buoy 33880

Last reported at 2017-Nov-22 23:00 UTC. Time now 2017-Nov-23 03:49 UTC.
Position S 34°39' W 015°50'.

Date/timePositionNaut miles runAvg speedWind from/ knotsBaromVisibWave heightAir tempDewpointWater temp
2017-Nov-22 23:00S 34°39' W 015°50'2 1.2
2017-Nov-22 21:00S 34°37' W 015°49'1 0.3
2017-Nov-22 18:00S 34°37' W 015°48'1 0.4
2017-Nov-22 16:00S 34°37' W 015°49'4 0.6
2017-Nov-22 10:00S 34°38' W 015°53'2 2.3
2017-Nov-22 09:00S 34°37' W 015°55'1 0.2
2017-Nov-22 04:00S 34°36' W 015°56'2 0.5
2017-Nov-22 00:00S 34°34' W 015°55'0 0.0
2017-Nov-21 23:00S 34°34' W 015°55'0 0.0
2017-Nov-21 22:00S 34°34' W 015°55'1 0.4
2017-Nov-21 19:00S 34°35' W 015°56'1 0.8
2017-Nov-21 18:00S 34°34' W 015°57'2 0.8
2017-Nov-21 15:00S 34°34' W 016°00'1 0.4
2017-Nov-21 11:00S 34°34' W 016°02'3 0.5
2017-Nov-21 05:00S 34°31' W 016°03'0 0.0
2017-Nov-21 04:00S 34°31' W 016°03'1 0.1
2017-Nov-20 22:00S 34°32' W 016°04'1 0.2
2017-Nov-20 19:00S 34°31' W 016°04'1 0.6
2017-Nov-20 18:00S 34°32' W 016°04'2 1.6
2017-Nov-20 17:00S 34°31' W 016°05'0 0.0
2017-Nov-20 16:00S 34°31' W 016°05'4 0.6
2017-Nov-20 09:00S 34°27' W 016°07'4 1.3
2017-Nov-20 06:00S 34°24' W 016°04'0 0.0
2017-Nov-20 05:00S 34°24' W 016°04'3 1.1
2017-Nov-20 02:00S 34°23' W 016°01'0 0.0
2017-Nov-20 00:00S 34°23' W 016°01'1 0.4
2017-Nov-19 22:00S 34°22' W 016°00'0 0.0
2017-Nov-19 20:00S 34°22' W 016°00'1 0.6
2017-Nov-19 19:00S 34°23' W 016°00'1 0.8
2017-Nov-19 18:00S 34°22' W 015°59'0 0.5
2017-Nov-19 17:00S 34°22' W 015°59'8 0.5
2017-Nov-19 02:00S 34°23' W 015°49'4 0.8
2017-Nov-18 21:00S 34°27' W 015°51'2 1.9
2017-Nov-18 20:00S 34°25' W 015°52'0 0.0
2017-Nov-18 18:00S 34°25' W 015°52'0 0.0
2017-Nov-18 17:00S 34°25' W 015°52'3 0.5
2017-Nov-18 10:00S 34°26' W 015°55'1 0.6
2017-Nov-18 08:00S 34°25' W 015°55'1 0.2
2017-Nov-18 03:00S 34°26' W 015°56'0 0.0
2017-Nov-18 02:00S 34°26' W 015°56'2 0.8
2017-Nov-17 23:00S 34°24' W 015°58'0 0.0
2017-Nov-17 22:00S 34°24' W 015°58'1 0.4
2017-Nov-17 20:00S 34°23' W 015°59'0 0.0
2017-Nov-17 19:00S 34°23' W 015°59'1 0.8
2017-Nov-17 18:00S 34°23' W 015°59'0 0.5
2017-Nov-17 17:00S 34°23' W 015°59'0 0.0
2017-Nov-17 15:00S 34°23' W 015°59'1 0.2
2017-Nov-17 10:00S 34°22' W 016°00'0 0.5
2017-Nov-17 09:00S 34°22' W 016°01'2 0.5
2017-Nov-17 06:00S 34°21' W 016°02'0 0.0
2017-Nov-17 05:00S 34°21' W 016°02'1 0.4
2017-Nov-17 03:00S 34°22' W 016°01'0 0.0
2017-Nov-17 02:00S 34°22' W 016°01'2 0.8
2017-Nov-17 00:00S 34°20' W 016°02'0 0.5
2017-Nov-16 23:00S 34°20' W 016°02'1 0.8
2017-Nov-16 22:00S 34°20' W 016°02'0 0.0
2017-Nov-16 21:00S 34°20' W 016°02'0 0.0
2017-Nov-16 20:00S 34°20' W 016°02'0 0.0
2017-Nov-16 19:00S 34°20' W 016°02'0 0.5
2017-Nov-16 18:00S 34°20' W 016°02'1 0.6
2017-Nov-16 17:00S 34°20' W 016°02'0 0.2
2017-Nov-16 15:00S 34°20' W 016°02'2 0.5
2017-Nov-16 11:00S 34°22' W 016°04'0 0.2
2017-Nov-16 09:00S 34°22' W 016°04'1 1.5
2017-Nov-16 08:00S 34°22' W 016°05'0 0.0
2017-Nov-16 07:00S 34°22' W 016°05'2 1.0
2017-Nov-16 05:00S 34°21' W 016°08'1 0.3
2017-Nov-16 03:00S 34°22' W 016°08'2 0.4
2017-Nov-15 23:00S 34°21' W 016°10'1 0.6
2017-Nov-15 22:00S 34°20' W 016°10'0 0.0
2017-Nov-15 21:00S 34°20' W 016°10'0 0.0
2017-Nov-15 20:00S 34°20' W 016°10'1 0.3
2017-Nov-15 18:00S 34°21' W 016°10'0 0.0
2017-Nov-15 17:00S 34°21' W 016°10'2 1.6
2017-Nov-15 16:00S 34°22' W 016°11'0 0.5
2017-Nov-15 15:00S 34°22' W 016°11'3 0.6
2017-Nov-15 10:00S 34°21' W 016°14'0 0.5
2017-Nov-15 09:00S 34°21' W 016°15'2 1.6
2017-Nov-15 08:00S 34°20' W 016°17'0 0.0
2017-Nov-15 07:00S 34°20' W 016°17'2 0.8
2017-Nov-15 05:00S 34°19' W 016°18'4 2.2
2017-Nov-15 03:00S 34°15' W 016°20'0 0.0
2017-Nov-15 00:00S 34°15' W 016°20'0 0.0
2017-Nov-14 23:00S 34°15' W 016°20'2 1.9
2017-Nov-14 22:00S 34°13' W 016°19'0 0.0
2017-Nov-14 21:00S 34°13' W 016°19'1 0.6
2017-Nov-14 19:00S 34°12' W 016°19'0 0.0
2017-Nov-14 18:00S 34°12' W 016°19'1 0.8
2017-Nov-14 17:00S 34°11' W 016°20'0 0.0
2017-Nov-14 16:00S 34°11' W 016°20'0 0.0
2017-Nov-14 15:00S 34°11' W 016°20'2 0.4
2017-Nov-14 11:00S 34°11' W 016°22'3 1.3
2017-Nov-14 09:00S 34°09' W 016°24'0 0.0
2017-Nov-14 08:00S 34°09' W 016°24'4 1.8
2017-Nov-14 06:00S 34°05' W 016°25'4 1.2
2017-Nov-14 03:00S 34°02' W 016°23'1 0.3
2017-Nov-13 23:00S 34°01' W 016°23'0 0.0
2017-Nov-13 22:00S 34°01' W 016°23'1 0.4
2017-Nov-13 19:00S 34°02' W 016°22'1 1.3
2017-Nov-13 18:00S 34°01' W 016°22'1 0.8
2017-Nov-13 17:00S 34°00' W 016°22'0 0.0
2017-Nov-13 16:00S 34°00' W 016°22'0 0.0
2017-Nov-13 15:00S 34°00' W 016°22'4 0.7
2017-Nov-13 10:00S 33°56' W 016°22'0 0.0
2017-Nov-13 08:00S 33°56' W 016°22'1 0.6
2017-Nov-13 06:00S 33°55' W 016°22'0 0.0
2017-Nov-13 05:00S 33°55' W 016°22'1 1.3
2017-Nov-13 04:00S 33°54' W 016°21'3 2.6
2017-Nov-13 03:00S 33°53' W 016°18'0 0.0
2017-Nov-13 00:00S 33°53' W 016°18'1 1.2
2017-Nov-12 23:00S 33°53' W 016°17'  

Dump ship's entire track history